Northern Cambria, Pennsylvania
Current Conditions -  °F | °C
As of 1:55 AM on Friday 19 Dec 2014 (Local Time) from KIDI Reporting Station
Haze Haze  
Wind Chill: 17°   Ceiling: 700
Heat Index: 27°   Visibility: 4mi
Dew Point: 27°   Wind: 10mph
Humidity: 100%   Direction: 270°W
Pressure: 30.13"   Gusts: NA
Location:  40.6905°N, 78.7599°W
Report Text: KIDI 190655Z AUTO 27009KT 4SM BR OVC007 M03/M03 A3013 RMK A01
Loading
Personal Weather Stations






























Interactive Weather Map New forecast layout! Learn more

10-Day Weather Forecast

Advertisements
Track Severe Weather on mobile